createdAt,value
2023-04-01T00:01:17.663Z,100.00
2023-04-01T00:03:45.029Z,99.85
2023-04-01T00:06:16.875Z,100.00
2023-04-01T00:08:43.744Z,99.05
2023-04-01T00:11:10.523Z,99.76
2023-04-01T00:13:37.496Z,98.91
2023-04-01T00:16:17.678Z,99.43
2023-04-01T00:18:48.501Z,99.01
2023-04-01T00:21:16.205Z,99.16
2023-04-01T00:23:43.137Z,98.72
2023-04-01T00:26:09.841Z,99.05
2023-04-01T00:28:37.224Z,97.68
2023-04-01T00:31:11.423Z,98.00
2023-04-01T00:33:39.248Z,98.08
2023-04-01T00:36:17.932Z,98.50
2023-04-01T00:38:45.790Z,98.92
2023-04-01T00:41:15.886Z,98.59
2023-04-01T00:43:44.621Z,98.52
2023-04-01T00:46:11.585Z,98.88
2023-04-01T00:48:44.934Z,98.31
2023-04-01T00:51:19.825Z,98.20
2023-04-01T00:53:51.326Z,97.51
2023-04-01T00:56:26.231Z,97.35
2023-04-01T00:58:59.156Z,97.36
2023-04-01T01:01:26.880Z,97.58
2023-04-01T01:03:53.765Z,96.84
2023-04-01T01:06:27.533Z,98.18
2023-04-01T01:09:08.685Z,97.77
2023-04-01T01:11:44.257Z,97.19
2023-04-01T01:14:15.463Z,96.29
2023-04-01T01:16:53.090Z,96.42
2023-04-01T01:20:07.731Z,96.53
2023-04-01T01:23:08.092Z,97.29
2023-04-01T01:25:59.620Z,97.69
2023-04-01T01:28:51.312Z,97.46
2023-04-01T01:31:28.587Z,97.43
2023-04-01T01:33:58.233Z,96.56
2023-04-01T01:36:29.664Z,96.49
2023-04-01T01:38:57.997Z,96.54
2023-04-01T01:41:27.726Z,96.30
2023-04-01T01:43:57.689Z,96.16
2023-04-01T01:46:27.330Z,96.70
2023-04-01T01:48:55.442Z,96.23
2023-04-01T01:51:23.952Z,96.01
2023-04-01T01:53:51.228Z,97.22
2023-04-01T01:56:20.774Z,96.83
2023-04-01T01:58:53.020Z,97.97
2023-04-01T02:01:26.892Z,98.38
2023-04-01T02:03:55.466Z,99.91
2023-04-01T02:06:28.889Z,99.44
2023-04-01T02:09:11.662Z,100.00
2023-04-01T02:11:51.372Z,100.00
2023-04-01T02:14:22.732Z,100.00
2023-04-01T02:17:12.338Z,100.00
2023-04-01T02:19:44.573Z,100.00
2023-04-01T02:22:17.707Z,100.00
2023-04-01T02:24:46.507Z,100.00
2023-04-01T02:27:13.918Z,100.00
2023-04-01T02:29:40.750Z,100.00
2023-04-01T02:32:08.765Z,100.00
2023-04-01T02:34:36.020Z,100.00
2023-04-01T02:37:03.079Z,100.00
2023-04-01T02:39:29.718Z,100.00
2023-04-01T02:41:56.443Z,100.00
2023-04-01T02:44:23.090Z,100.00
2023-04-01T02:46:49.827Z,100.00
2023-04-01T02:49:16.480Z,100.00
2023-04-01T02:51:43.094Z,100.00
2023-04-01T02:54:09.752Z,100.00
2023-04-01T02:56:36.397Z,100.00
2023-04-01T02:59:03.045Z,100.00
2023-04-01T03:01:29.785Z,100.00
2023-04-01T03:03:56.563Z,100.00
2023-04-01T03:06:23.233Z,100.00
2023-04-01T03:08:49.874Z,100.00
2023-04-01T03:11:16.523Z,99.46
2023-04-01T03:13:43.361Z,99.28
2023-04-01T03:16:10.081Z,99.92
2023-04-01T03:18:36.744Z,100.00
2023-04-01T03:21:20.363Z,99.34
2023-04-01T03:23:47.010Z,100.00
2023-04-01T03:26:14.389Z,99.13
2023-04-01T03:28:41.108Z,99.94
2023-04-01T03:31:08.163Z,99.26
2023-04-01T03:33:34.867Z,99.24
2023-04-01T03:36:01.763Z,98.54
2023-04-01T03:38:28.485Z,98.07
2023-04-01T03:40:55.150Z,97.18
2023-04-01T03:43:22.434Z,98.25
2023-04-01T03:45:52.067Z,98.19
2023-04-01T03:48:19.410Z,97.44
2023-04-01T03:50:46.151Z,96.92
2023-04-01T03:53:12.922Z,97.03
2023-04-01T03:55:40.103Z,97.48
2023-04-01T03:58:08.326Z,97.74
2023-04-01T04:00:35.769Z,97.64
2023-04-01T04:03:02.837Z,97.54
2023-04-01T04:05:29.679Z,97.83
2023-04-01T04:07:56.694Z,97.67
2023-04-01T04:10:24.384Z,97.16
2023-04-01T04:12:51.693Z,96.93
2023-04-01T04:15:18.615Z,97.14
2023-04-01T04:17:46.774Z,97.07
2023-04-01T04:20:13.826Z,98.51
2023-04-01T04:22:40.816Z,98.14
2023-04-01T04:25:08.561Z,97.76
2023-04-01T04:27:36.222Z,96.88
2023-04-01T04:30:03.065Z,97.25
2023-04-01T04:32:30.732Z,97.08
2023-04-01T04:34:57.949Z,97.73
2023-04-01T04:37:24.693Z,97.46
2023-04-01T04:39:51.296Z,97.78
2023-04-01T04:42:17.965Z,97.00
2023-04-01T04:44:44.685Z,97.89
2023-04-01T04:47:11.365Z,97.56
2023-04-01T04:49:38.055Z,97.71
2023-04-01T04:52:04.773Z,97.46
2023-04-01T04:54:31.689Z,97.39
2023-04-01T04:56:58.331Z,97.26
2023-04-01T04:59:25.015Z,96.89
2023-04-01T05:01:51.698Z,97.24
2023-04-01T05:04:18.323Z,97.25
2023-04-01T05:06:46.113Z,96.30
2023-04-01T05:09:13.267Z,96.02
2023-04-01T05:11:39.921Z,96.67
2023-04-01T05:14:06.762Z,96.60
2023-04-01T05:16:33.590Z,96.56
2023-04-01T05:19:00.424Z,96.57
2023-04-01T05:21:27.068Z,96.04
2023-04-01T05:23:53.688Z,96.17
2023-04-01T05:26:20.444Z,95.80
2023-04-01T05:28:47.083Z,96.12
2023-04-01T05:31:13.859Z,95.67
2023-04-01T05:33:40.845Z,96.28
2023-04-01T05:36:13.184Z,95.71
2023-04-01T05:38:40.725Z,95.87
2023-04-01T05:41:07.493Z,95.00
2023-04-01T05:43:37.743Z,94.79
2023-04-01T05:46:04.442Z,94.51
2023-04-01T05:48:31.215Z,93.86
2023-04-01T05:50:57.916Z,93.07
2023-04-01T05:53:24.592Z,93.14
2023-04-01T05:55:51.242Z,93.65
2023-04-01T05:58:17.838Z,93.12
2023-04-01T06:00:44.476Z,92.82
2023-04-01T06:03:11.225Z,93.39
2023-04-01T06:05:43.223Z,93.88
2023-04-01T06:08:20.474Z,92.91
2023-04-01T06:10:53.547Z,92.94
2023-04-01T06:13:52.202Z,91.57
2023-04-01T06:16:56.450Z,93.13
2023-04-01T06:19:40.929Z,92.91
2023-04-01T06:22:32.608Z,92.27
2023-04-01T06:25:04.894Z,92.59
2023-04-01T06:28:00.800Z,92.84
2023-04-01T06:30:46.050Z,91.75
2023-04-01T06:33:32.580Z,92.59
2023-04-01T06:36:27.076Z,93.31
2023-04-01T06:39:04.362Z,93.58
2023-04-01T06:41:59.137Z,93.13
2023-04-01T06:44:56.547Z,93.58
2023-04-01T06:47:57.799Z,93.02
2023-04-01T06:50:37.977Z,92.49
2023-04-01T06:53:18.981Z,91.59
2023-04-01T06:55:53.013Z,93.09
2023-04-01T06:58:26.517Z,93.27
2023-04-01T07:01:02.008Z,93.57
2023-04-01T07:03:34.146Z,92.04
2023-04-01T07:06:06.588Z,92.26
2023-04-01T07:08:39.122Z,92.54
2023-04-01T07:11:07.891Z,92.31
2023-04-01T07:13:56.123Z,92.60
2023-04-01T07:16:33.719Z,93.33
2023-04-01T07:19:09.899Z,93.13
2023-04-01T07:21:45.924Z,94.35
2023-04-01T07:24:40.555Z,93.53
2023-04-01T07:27:12.481Z,95.09
2023-04-01T07:29:39.225Z,94.05
2023-04-01T07:32:37.029Z,94.60
2023-04-01T07:35:06.508Z,95.18
2023-04-01T07:37:33.060Z,95.72
2023-04-01T07:40:27.467Z,93.83
2023-04-01T07:43:15.471Z,94.33
2023-04-01T07:46:10.282Z,95.20
2023-04-01T07:48:57.098Z,94.49
2023-04-01T07:51:45.425Z,93.77
2023-04-01T07:54:12.062Z,92.07
2023-04-01T07:56:44.785Z,93.69
2023-04-01T07:59:17.803Z,93.66
2023-04-01T08:02:12.826Z,93.41
2023-04-01T08:05:06.450Z,92.86
2023-04-01T08:08:00.777Z,94.79
2023-04-01T08:10:30.652Z,93.48
2023-04-01T08:13:22.316Z,95.41
2023-04-01T08:16:14.141Z,93.25
2023-04-01T08:18:46.415Z,93.97
2023-04-01T08:21:24.591Z,95.03
2023-04-01T08:23:56.139Z,94.48
2023-04-01T08:26:30.624Z,93.66
2023-04-01T08:29:27.301Z,94.26
2023-04-01T08:32:07.853Z,93.90
2023-04-01T08:34:41.834Z,93.61
2023-04-01T08:37:23.329Z,95.02
2023-04-01T08:39:56.962Z,94.25
2023-04-01T08:42:42.296Z,94.15
2023-04-01T08:45:14.299Z,93.11
2023-04-01T08:47:57.714Z,94.38
2023-04-01T08:50:28.986Z,93.61
2023-04-01T08:53:14.943Z,93.06
2023-04-01T08:56:03.487Z,93.29
2023-04-01T08:58:38.991Z,92.51
2023-04-01T09:01:24.304Z,92.33
2023-04-01T09:04:09.257Z,91.14
2023-04-01T09:07:25.390Z,91.22
2023-04-01T09:10:12.164Z,91.71
2023-04-01T09:13:15.802Z,91.81
2023-04-01T09:15:45.452Z,90.57
2023-04-01T09:18:33.345Z,89.82
2023-04-01T09:21:08.019Z,90.55
2023-04-01T09:23:49.128Z,90.77
2023-04-01T09:26:36.883Z,87.96
2023-04-01T09:29:24.091Z,89.84
2023-04-01T09:32:18.021Z,90.04
2023-04-01T09:35:02.841Z,89.18
2023-04-01T09:37:29.368Z,88.26
2023-04-01T09:40:19.933Z,87.20
2023-04-01T09:43:03.088Z,85.77
2023-04-01T09:45:56.226Z,87.75
2023-04-01T09:48:39.884Z,84.92
2023-04-01T09:51:12.253Z,86.86
2023-04-01T09:53:57.660Z,86.73
2023-04-01T09:56:59.090Z,87.29
2023-04-01T09:59:50.306Z,87.25
2023-04-01T10:02:35.336Z,86.30
2023-04-01T10:05:33.295Z,89.21
2023-04-01T10:08:40.690Z,89.03
2023-04-01T10:11:13.317Z,89.02
2023-04-01T10:14:28.468Z,88.63
2023-04-01T10:17:13.252Z,90.23
2023-04-01T10:20:10.923Z,90.41
2023-04-01T10:22:46.481Z,89.70
2023-04-01T10:25:32.165Z,93.83
2023-04-01T10:27:59.021Z,92.97
2023-04-01T10:30:31.476Z,91.67
2023-04-01T10:32:58.058Z,92.74
2023-04-01T10:35:39.914Z,92.07
2023-04-01T10:38:35.761Z,91.81
2023-04-01T10:41:29.654Z,92.50
2023-04-01T10:44:12.758Z,93.72
2023-04-01T10:46:51.331Z,94.57
2023-04-01T10:49:47.686Z,91.31
2023-04-01T10:52:41.059Z,90.32
2023-04-01T10:56:05.211Z,87.35
2023-04-01T10:58:57.920Z,90.11
2023-04-01T11:02:08.132Z,88.78
2023-04-01T11:05:17.625Z,86.86
2023-04-01T11:08:02.737Z,87.13
2023-04-01T11:10:40.437Z,86.88
2023-04-01T11:13:41.318Z,88.67
2023-04-01T11:16:23.292Z,87.26
2023-04-01T11:18:55.943Z,87.09
2023-04-01T11:21:41.437Z,87.28
2023-04-01T11:24:39.645Z,89.84
2023-04-01T11:27:26.370Z,89.89
2023-04-01T11:30:00.216Z,91.12
2023-04-01T11:32:36.214Z,91.86
2023-04-01T11:35:24.400Z,91.78
2023-04-01T11:38:13.559Z,92.74
2023-04-01T11:40:56.163Z,90.47
2023-04-01T11:43:35.907Z,91.75
2023-04-01T11:46:16.315Z,90.58
2023-04-01T11:49:21.595Z,90.25
2023-04-01T11:52:01.563Z,91.44
2023-04-01T11:55:03.458Z,92.35
2023-04-01T11:57:52.034Z,92.91
2023-04-01T12:00:34.139Z,93.38
2023-04-01T12:03:25.643Z,93.73
2023-04-01T12:06:01.646Z,93.80
2023-04-01T12:08:54.488Z,94.25
2023-04-01T12:11:26.819Z,94.09
2023-04-01T12:14:03.518Z,96.28
2023-04-01T12:16:52.181Z,95.15
2023-04-01T12:19:37.895Z,94.67
2023-04-01T12:22:07.201Z,93.78
2023-04-01T12:24:49.069Z,93.19
2023-04-01T12:27:57.946Z,92.35
2023-04-01T12:30:27.227Z,90.43
2023-04-01T12:33:02.737Z,90.81
2023-04-01T12:35:44.670Z,89.81
2023-04-01T12:38:36.452Z,86.86
2023-04-01T12:41:21.269Z,89.64
2023-04-01T12:44:17.141Z,88.82
2023-04-01T12:47:13.346Z,86.59
2023-04-01T12:50:04.856Z,87.37
2023-04-01T12:52:37.509Z,86.88
2023-04-01T12:55:38.854Z,85.81
2023-04-01T12:58:18.422Z,86.58
2023-04-01T13:00:53.925Z,84.92
2023-04-01T13:03:26.386Z,84.12
2023-04-01T13:06:15.991Z,82.63
2023-04-01T13:08:54.616Z,83.92
2023-04-01T13:11:30.299Z,82.30
2023-04-01T13:14:21.648Z,84.01
2023-04-01T13:17:18.871Z,85.49
2023-04-01T13:20:02.033Z,87.69
2023-04-01T13:22:34.788Z,88.92
2023-04-01T13:25:22.613Z,89.60
2023-04-01T13:28:01.086Z,91.53
2023-04-01T13:30:40.704Z,92.58
2023-04-01T13:33:29.319Z,92.37
2023-04-01T13:36:14.382Z,92.99
2023-04-01T13:39:00.772Z,91.86
2023-04-01T13:41:51.974Z,93.13
2023-04-01T13:44:49.236Z,93.40
2023-04-01T13:47:33.806Z,95.71
2023-04-01T13:50:18.939Z,93.46
2023-04-01T13:53:02.868Z,94.31
2023-04-01T13:56:07.054Z,96.40
2023-04-01T13:59:08.453Z,95.59
2023-04-01T14:01:51.083Z,95.70
2023-04-01T14:04:32.190Z,94.75
2023-04-01T14:07:04.761Z,95.79
2023-04-01T14:09:39.608Z,94.15
2023-04-01T14:12:17.511Z,95.27
2023-04-01T14:15:02.300Z,97.56
2023-04-01T14:17:37.230Z,96.99
2023-04-01T14:20:22.003Z,97.05
2023-04-01T14:23:21.968Z,95.68
2023-04-01T14:26:16.665Z,95.63
2023-04-01T14:28:58.236Z,96.87
2023-04-01T14:31:49.159Z,98.24
2023-04-01T14:34:51.762Z,95.98
2023-04-01T14:37:26.592Z,96.36
2023-04-01T14:40:14.218Z,96.90
2023-04-01T14:42:59.678Z,96.44
2023-04-01T14:45:26.384Z,97.69
2023-04-01T14:47:57.360Z,96.40
2023-04-01T14:50:31.511Z,97.03
2023-04-01T14:53:14.299Z,98.54
2023-04-01T14:55:43.750Z,99.13
2023-04-01T14:58:12.292Z,99.13
2023-04-01T15:01:07.058Z,99.12
2023-04-01T15:04:23.542Z,98.23
2023-04-01T15:07:22.090Z,97.57
2023-04-01T15:10:08.894Z,95.67
2023-04-01T15:12:47.342Z,95.50
2023-04-01T15:15:46.259Z,96.73
2023-04-01T15:18:22.448Z,97.39
2023-04-01T15:20:55.021Z,98.54
2023-04-01T15:23:40.653Z,98.00
2023-04-01T15:26:18.665Z,99.42
2023-04-01T15:28:59.219Z,99.48
2023-04-01T15:31:33.837Z,100.00
2023-04-01T15:34:30.665Z,100.00
2023-04-01T15:37:27.165Z,99.57
2023-04-01T15:40:25.072Z,100.00
2023-04-01T15:43:24.141Z,98.87
2023-04-01T15:46:19.856Z,99.27
2023-04-01T15:48:58.722Z,100.00
2023-04-01T15:51:31.415Z,99.45
2023-04-01T15:54:35.684Z,100.00
2023-04-01T15:57:23.538Z,99.96
2023-04-01T16:00:17.636Z,99.33
2023-04-01T16:02:52.628Z,99.61
2023-04-01T16:05:26.798Z,99.65
2023-04-01T16:07:59.317Z,100.00
2023-04-01T16:10:33.093Z,100.00
2023-04-01T16:13:31.117Z,100.00
2023-04-01T16:16:18.296Z,100.00
2023-04-01T16:19:08.166Z,100.00
2023-04-01T16:21:53.539Z,100.00
2023-04-01T16:24:35.735Z,100.00
2023-04-01T16:27:09.211Z,100.00
2023-04-01T16:29:48.521Z,100.00
2023-04-01T16:32:50.624Z,100.00
2023-04-01T16:35:26.001Z,100.00
2023-04-01T16:38:00.264Z,100.00
2023-04-01T16:41:13.102Z,100.00
2023-04-01T16:43:53.021Z,100.00
2023-04-01T16:46:36.592Z,100.00
2023-04-01T16:49:12.201Z,100.00
2023-04-01T16:51:57.841Z,100.00
2023-04-01T16:54:46.654Z,100.00
2023-04-01T16:57:20.757Z,100.00
2023-04-01T16:59:49.200Z,100.00
2023-04-01T17:02:21.665Z,100.00
2023-04-01T17:05:04.333Z,100.00
2023-04-01T17:08:11.239Z,100.00
2023-04-01T17:11:05.857Z,100.00
2023-04-01T17:13:37.167Z,100.00
2023-04-01T17:16:03.809Z,100.00
2023-04-01T17:18:53.321Z,100.00
2023-04-01T17:22:10.829Z,100.00
2023-04-01T17:25:09.480Z,100.00
2023-04-01T17:28:02.945Z,100.00
2023-04-01T17:30:36.164Z,100.00
2023-04-01T17:33:32.882Z,100.00
2023-04-01T17:36:31.081Z,100.00
2023-04-01T17:39:16.411Z,100.00
2023-04-01T17:42:01.140Z,100.00
2023-04-01T17:45:00.725Z,100.00
2023-04-01T17:47:32.940Z,100.00
2023-04-01T17:50:08.583Z,100.00
2023-04-01T17:52:43.026Z,100.00
2023-04-01T17:55:38.557Z,100.00
2023-04-01T17:58:17.740Z,100.00
2023-04-01T18:01:25.569Z,100.00
2023-04-01T18:04:27.738Z,100.00
2023-04-01T18:07:05.685Z,100.00
2023-04-01T18:10:16.952Z,100.00
2023-04-01T18:12:46.786Z,100.00
2023-04-01T18:15:52.249Z,100.00
2023-04-01T18:18:45.024Z,100.00
2023-04-01T18:21:30.210Z,100.00
2023-04-01T18:24:14.567Z,100.00
2023-04-01T18:26:45.118Z,100.00
2023-04-01T18:29:19.096Z,100.00
2023-04-01T18:31:50.822Z,100.00
2023-04-01T18:34:32.454Z,100.00
2023-04-01T18:37:34.236Z,100.00
2023-04-01T18:40:19.278Z,100.00
2023-04-01T18:42:53.999Z,100.00
2023-04-01T18:45:44.493Z,100.00
2023-04-01T18:48:33.452Z,100.00
2023-04-01T18:51:16.415Z,100.00
2023-04-01T18:54:28.266Z,100.00
2023-04-01T18:57:13.328Z,100.00
2023-04-01T19:00:05.689Z,100.00
2023-04-01T19:02:41.858Z,100.00
2023-04-01T19:05:24.436Z,100.00
2023-04-01T19:07:53.762Z,100.00
2023-04-01T19:10:42.991Z,100.00
2023-04-01T19:13:52.974Z,100.00
2023-04-01T19:17:07.180Z,100.00
2023-04-01T19:19:57.001Z,100.00
2023-04-01T19:22:26.648Z,100.00
2023-04-01T19:25:34.328Z,100.00
2023-04-01T19:28:38.232Z,100.00
2023-04-01T19:31:26.407Z,100.00
2023-04-01T19:34:18.932Z,100.00
2023-04-01T19:37:10.558Z,100.00
2023-04-01T19:39:40.065Z,100.00
2023-04-01T19:42:16.227Z,100.00
2023-04-01T19:44:57.256Z,100.00
2023-04-01T19:47:40.651Z,100.00
2023-04-01T19:50:38.044Z,100.00
2023-04-01T19:53:26.107Z,100.00
2023-04-01T19:56:18.886Z,100.00
2023-04-01T19:58:57.694Z,100.00
2023-04-01T20:01:43.743Z,100.00
2023-04-01T20:04:57.252Z,100.00
2023-04-01T20:07:40.517Z,100.00
2023-04-01T20:10:26.409Z,100.00
2023-04-01T20:13:30.488Z,100.00
2023-04-01T20:16:03.484Z,100.00
2023-04-01T20:18:53.667Z,100.00
2023-04-01T20:21:23.196Z,100.00
2023-04-01T20:23:54.076Z,100.00
2023-04-01T20:26:24.255Z,100.00
2023-04-01T20:29:21.769Z,100.00
2023-04-01T20:32:31.230Z,100.00
2023-04-01T20:35:19.765Z,100.00
2023-04-01T20:38:07.153Z,100.00
2023-04-01T20:40:47.944Z,100.00
2023-04-01T20:43:29.857Z,100.00
2023-04-01T20:45:59.740Z,100.00
2023-04-01T20:48:32.344Z,100.00
2023-04-01T20:51:03.233Z,100.00
2023-04-01T20:53:52.248Z,100.00
2023-04-01T20:57:17.219Z,100.00
2023-04-01T20:59:46.994Z,100.00
2023-04-01T21:02:49.094Z,100.00
2023-04-01T21:05:33.117Z,100.00
2023-04-01T21:08:11.968Z,100.00
2023-04-01T21:11:09.076Z,100.00
2023-04-01T21:13:41.859Z,100.00
2023-04-01T21:16:26.972Z,100.00
2023-04-01T21:19:26.876Z,100.00
2023-04-01T21:22:12.256Z,100.00
2023-04-01T21:24:50.007Z,100.00
2023-04-01T21:27:31.475Z,100.00
2023-04-01T21:30:20.622Z,100.00
2023-04-01T21:32:56.388Z,100.00
2023-04-01T21:35:50.567Z,100.00
2023-04-01T21:38:28.732Z,100.00
2023-04-01T21:41:28.339Z,100.00
2023-04-01T21:44:15.238Z,100.00
2023-04-01T21:47:09.489Z,100.00
2023-04-01T21:50:24.542Z,100.00
2023-04-01T21:53:15.920Z,100.00
2023-04-01T21:56:01.378Z,100.00
2023-04-01T21:59:00.207Z,100.00
2023-04-01T22:01:41.947Z,100.00
2023-04-01T22:04:36.209Z,100.00
2023-04-01T22:07:15.947Z,100.00
2023-04-01T22:10:00.948Z,100.00
2023-04-01T22:12:44.774Z,100.00
2023-04-01T22:15:53.102Z,100.00
2023-04-01T22:18:38.159Z,100.00
2023-04-01T22:21:41.760Z,100.00
2023-04-01T22:24:27.392Z,100.00
2023-04-01T22:26:53.941Z,100.00
2023-04-01T22:29:33.100Z,100.00
2023-04-01T22:32:14.180Z,100.00
2023-04-01T22:34:54.428Z,100.00
2023-04-01T22:37:36.668Z,100.00
2023-04-01T22:40:40.439Z,100.00
2023-04-01T22:43:20.493Z,100.00
2023-04-01T22:45:53.183Z,100.00
2023-04-01T22:49:23.617Z,100.00
2023-04-01T22:52:07.126Z,100.00
2023-04-01T22:54:43.260Z,100.00
2023-04-01T22:57:18.044Z,100.00
2023-04-01T23:00:14.035Z,100.00
2023-04-01T23:02:47.766Z,100.00
2023-04-01T23:05:19.475Z,100.00
2023-04-01T23:08:07.896Z,100.00
2023-04-01T23:10:45.050Z,100.00
2023-04-01T23:13:17.315Z,100.00
2023-04-01T23:15:45.216Z,100.00
2023-04-01T23:18:42.436Z,100.00
2023-04-01T23:21:26.081Z,100.00
2023-04-01T23:24:31.541Z,100.00
2023-04-01T23:27:14.772Z,100.00
2023-04-01T23:29:43.752Z,100.00
2023-04-01T23:32:19.464Z,100.00
2023-04-01T23:34:51.362Z,100.00
2023-04-01T23:37:20.266Z,100.00
2023-04-01T23:39:50.207Z,100.00
2023-04-01T23:42:20.886Z,100.00
2023-04-01T23:44:50.144Z,100.00
2023-04-01T23:47:38.856Z,100.00
2023-04-01T23:50:12.851Z,100.00
2023-04-01T23:52:53.353Z,100.00
2023-04-01T23:55:27.153Z,100.00
2023-04-01T23:58:18.214Z,100.00
